createdAt,value
2023-10-30T00:00:43.819Z,11.20
2023-10-30T00:03:13.078Z,11.18
2023-10-30T00:05:40.885Z,11.19
2023-10-30T00:08:08.565Z,11.18
2023-10-30T00:10:36.272Z,11.19
2023-10-30T00:13:03.941Z,11.20
2023-10-30T00:15:31.725Z,11.19
2023-10-30T00:17:59.411Z,11.20
2023-10-30T00:20:28.439Z,11.21
2023-10-30T00:22:56.383Z,11.23
2023-10-30T00:25:24.469Z,11.25
2023-10-30T00:27:52.103Z,11.25
2023-10-30T00:30:20.758Z,11.23
2023-10-30T00:32:48.539Z,11.24
2023-10-30T00:35:16.420Z,11.21
2023-10-30T00:37:45.479Z,11.24
2023-10-30T00:40:14.395Z,11.26
2023-10-30T00:42:42.718Z,11.26
2023-10-30T00:45:11.571Z,11.25
2023-10-30T00:47:41.043Z,11.25
2023-10-30T00:50:09.822Z,11.27
2023-10-30T00:52:37.651Z,11.30
2023-10-30T00:55:07.120Z,11.30
2023-10-30T00:57:35.004Z,11.30
2023-10-30T01:00:02.917Z,11.32
2023-10-30T01:02:30.692Z,11.31
2023-10-30T01:04:58.632Z,11.33
2023-10-30T01:07:26.712Z,11.33
2023-10-30T01:09:54.386Z,11.31
2023-10-30T01:12:23.409Z,11.35
2023-10-30T01:14:51.156Z,11.34
2023-10-30T01:17:18.738Z,11.35
2023-10-30T01:19:46.722Z,11.34
2023-10-30T01:22:14.472Z,11.36
2023-10-30T01:24:42.390Z,11.35
2023-10-30T01:27:10.546Z,11.34
2023-10-30T01:29:39.641Z,11.31
2023-10-30T01:32:07.722Z,11.31
2023-10-30T01:34:35.451Z,11.31
2023-10-30T01:37:03.708Z,11.30
2023-10-30T01:39:31.362Z,11.29
2023-10-30T01:41:59.101Z,11.28
2023-10-30T01:44:26.765Z,11.29
2023-10-30T01:46:56.393Z,11.31
2023-10-30T01:49:24.343Z,11.32
2023-10-30T01:51:52.086Z,11.30
2023-10-30T01:54:19.701Z,11.31
2023-10-30T01:56:47.529Z,11.33
2023-10-30T01:59:15.597Z,11.34
2023-10-30T02:01:43.344Z,11.35
2023-10-30T02:04:13.568Z,11.37
2023-10-30T02:06:41.463Z,11.37
2023-10-30T02:09:09.200Z,11.38
2023-10-30T02:11:36.886Z,11.37
2023-10-30T02:14:04.588Z,11.33
2023-10-30T02:16:32.228Z,11.27
2023-10-30T02:19:00.234Z,11.20
2023-10-30T02:21:29.406Z,11.16
2023-10-30T02:24:07.023Z,11.09
2023-10-30T02:26:36.144Z,11.06
2023-10-30T02:29:06.879Z,11.05
2023-10-30T02:31:34.977Z,11.06
2023-10-30T02:34:02.821Z,11.05
2023-10-30T02:36:30.610Z,11.06
2023-10-30T02:38:58.375Z,11.05
2023-10-30T02:41:30.271Z,11.10
2023-10-30T02:43:59.694Z,11.11
2023-10-30T02:46:27.676Z,11.11
2023-10-30T02:48:55.951Z,11.08
2023-10-30T02:51:23.860Z,11.10
2023-10-30T02:53:51.657Z,11.09
2023-10-30T02:56:19.290Z,11.05
2023-10-30T02:58:46.886Z,10.96
2023-10-30T03:01:15.888Z,10.85
2023-10-30T03:03:43.643Z,10.78
2023-10-30T03:06:11.541Z,10.66
2023-10-30T03:08:39.142Z,10.61
2023-10-30T03:11:06.767Z,10.53
2023-10-30T03:13:34.429Z,10.47
2023-10-30T03:16:02.185Z,10.40
2023-10-30T03:18:31.657Z,10.35
2023-10-30T03:20:59.421Z,10.26
2023-10-30T03:23:27.037Z,10.16
2023-10-30T03:25:55.713Z,10.15
2023-10-30T03:28:23.306Z,10.09
2023-10-30T03:30:50.955Z,10.06
2023-10-30T03:33:21.695Z,10.01
2023-10-30T03:35:50.765Z,9.97
2023-10-30T03:38:18.446Z,9.97
2023-10-30T03:40:46.085Z,9.91
2023-10-30T03:43:15.293Z,9.88
2023-10-30T03:45:44.990Z,9.85
2023-10-30T03:48:12.888Z,9.84
2023-10-30T03:50:39.789Z,9.82
2023-10-30T03:53:08.713Z,9.77
2023-10-30T03:55:36.710Z,9.71
2023-10-30T03:58:05.810Z,9.67
2023-10-30T04:00:33.527Z,9.64
2023-10-30T04:03:01.239Z,9.61
2023-10-30T04:05:29.080Z,9.57
2023-10-30T04:07:56.989Z,9.55
2023-10-30T04:10:25.942Z,9.51
2023-10-30T04:12:53.589Z,9.50
2023-10-30T04:15:21.363Z,9.48
2023-10-30T04:17:49.086Z,9.43
2023-10-30T04:20:16.931Z,9.44
2023-10-30T04:22:44.593Z,9.42
2023-10-30T04:25:12.640Z,9.41
2023-10-30T04:27:41.745Z,9.41
2023-10-30T04:30:11.233Z,9.39
2023-10-30T04:32:39.034Z,9.40
2023-10-30T04:35:07.067Z,9.38
2023-10-30T04:37:35.611Z,9.40
2023-10-30T04:40:03.663Z,9.42
2023-10-30T04:42:31.986Z,9.45
2023-10-30T04:45:01.857Z,9.51
2023-10-30T04:47:29.545Z,9.55
2023-10-30T04:49:57.204Z,9.59
2023-10-30T04:52:26.644Z,9.65
2023-10-30T04:54:54.698Z,9.68
2023-10-30T04:57:22.475Z,9.69
2023-10-30T04:59:50.216Z,9.66
2023-10-30T05:02:19.422Z,9.64
2023-10-30T05:04:47.819Z,9.63
2023-10-30T05:07:15.451Z,9.59
2023-10-30T05:09:43.303Z,9.56
2023-10-30T05:12:11.010Z,9.52
2023-10-30T05:14:38.654Z,9.50
2023-10-30T05:17:06.285Z,9.48
2023-10-30T05:19:35.670Z,9.46
2023-10-30T05:22:03.326Z,9.42
2023-10-30T05:24:31.065Z,9.43
2023-10-30T05:26:58.685Z,9.43
2023-10-30T05:29:26.324Z,9.42
2023-10-30T05:31:54.063Z,9.46
2023-10-30T05:34:21.675Z,9.47
2023-10-30T05:36:50.698Z,9.48
2023-10-30T05:39:18.386Z,9.51
2023-10-30T05:41:46.090Z,9.53
2023-10-30T05:44:13.654Z,9.58
2023-10-30T05:46:41.809Z,9.59
2023-10-30T05:49:09.663Z,9.63
2023-10-30T05:51:37.347Z,9.70
2023-10-30T05:54:07.273Z,9.76
2023-10-30T05:56:34.940Z,9.81
2023-10-30T05:59:02.830Z,9.86
2023-10-30T06:01:30.675Z,9.88
2023-10-30T06:03:58.458Z,9.90
2023-10-30T06:06:26.562Z,9.90
2023-10-30T06:08:54.331Z,9.89
2023-10-30T06:11:23.370Z,9.89
2023-10-30T06:13:51.245Z,9.88
2023-10-30T06:16:20.584Z,9.88
2023-10-30T06:18:48.626Z,9.85
2023-10-30T06:21:17.137Z,9.85
2023-10-30T06:23:45.022Z,9.86
2023-10-30T06:26:13.210Z,9.84
2023-10-30T06:28:43.011Z,9.83
2023-10-30T06:31:15.646Z,9.81
2023-10-30T06:33:44.309Z,9.80
2023-10-30T06:36:12.062Z,9.78
2023-10-30T06:38:40.296Z,9.76
2023-10-30T06:41:08.586Z,9.77
2023-10-30T06:43:37.106Z,9.76
2023-10-30T06:46:07.004Z,9.74
2023-10-30T06:48:35.193Z,9.75
2023-10-30T06:51:02.938Z,9.73
2023-10-30T06:53:30.560Z,9.74
2023-10-30T06:55:59.144Z,9.78
2023-10-30T06:58:26.890Z,9.82
2023-10-30T07:01:02.743Z,9.94
2023-10-30T07:03:33.755Z,10.06
2023-10-30T07:06:01.952Z,10.11
2023-10-30T07:08:29.747Z,10.13
2023-10-30T07:10:57.586Z,10.17
2023-10-30T07:13:25.538Z,10.18
2023-10-30T07:15:53.233Z,10.23
2023-10-30T07:18:20.939Z,10.32
2023-10-30T07:20:50.994Z,10.33
2023-10-30T07:23:19.036Z,10.45
2023-10-30T07:25:46.805Z,10.54
2023-10-30T07:28:17.460Z,10.55
2023-10-30T07:30:45.232Z,10.65
2023-10-30T07:33:13.396Z,10.70
2023-10-30T07:35:41.987Z,10.78
2023-10-30T07:38:11.050Z,10.83
2023-10-30T07:40:38.819Z,10.82
2023-10-30T07:43:06.552Z,10.91
2023-10-30T07:45:34.347Z,11.00
2023-10-30T07:48:01.980Z,11.06
2023-10-30T07:50:29.708Z,11.11
2023-10-30T07:52:57.418Z,11.23
2023-10-30T07:55:26.528Z,11.22
2023-10-30T07:57:54.233Z,11.27
2023-10-30T08:00:22.280Z,11.35
2023-10-30T08:02:50.828Z,11.37
2023-10-30T08:05:18.735Z,11.32
2023-10-30T08:07:46.533Z,11.34
2023-10-30T08:10:14.798Z,11.39
2023-10-30T08:12:43.869Z,11.46
2023-10-30T08:15:12.010Z,11.53
2023-10-30T08:17:40.251Z,11.58
2023-10-30T08:20:11.029Z,11.70
2023-10-30T08:22:39.894Z,11.75
2023-10-30T08:25:08.132Z,11.78
2023-10-30T08:27:36.071Z,11.83
2023-10-30T08:30:07.062Z,11.91
2023-10-30T08:32:34.764Z,11.93
2023-10-30T08:35:03.947Z,12.03
2023-10-30T08:37:31.611Z,12.05
2023-10-30T08:39:59.230Z,12.10
2023-10-30T08:42:26.997Z,12.17
2023-10-30T08:44:54.839Z,12.23
2023-10-30T08:47:25.121Z,12.24
2023-10-30T08:49:52.826Z,12.23
2023-10-30T08:52:20.649Z,12.27
2023-10-30T08:54:48.354Z,12.38
2023-10-30T08:57:20.378Z,12.47
2023-10-30T08:59:48.614Z,12.56
2023-10-30T09:02:16.422Z,12.60
2023-10-30T09:04:45.685Z,12.58
2023-10-30T09:07:13.723Z,12.57
2023-10-30T09:09:41.485Z,12.65
2023-10-30T09:12:10.178Z,12.72
2023-10-30T09:14:37.957Z,12.74
2023-10-30T09:17:09.531Z,12.74
2023-10-30T09:19:37.376Z,12.91
2023-10-30T09:22:06.926Z,13.02
2023-10-30T09:24:34.809Z,13.08
2023-10-30T09:27:02.496Z,13.05
2023-10-30T09:29:30.151Z,13.11
2023-10-30T09:32:00.558Z,13.15
2023-10-30T09:34:28.316Z,13.17
2023-10-30T09:36:56.016Z,13.04
2023-10-30T09:39:25.103Z,13.23
2023-10-30T09:41:55.955Z,13.25
2023-10-30T09:44:24.055Z,13.19
2023-10-30T09:46:52.366Z,13.13
2023-10-30T09:49:21.375Z,13.21
2023-10-30T09:51:52.077Z,13.37
2023-10-30T09:54:20.674Z,13.44
2023-10-30T09:56:51.124Z,13.47
2023-10-30T09:59:18.829Z,13.68
2023-10-30T10:01:46.689Z,13.72
2023-10-30T10:04:14.815Z,13.67
2023-10-30T10:06:43.565Z,13.53
2023-10-30T10:09:11.309Z,13.51
2023-10-30T10:11:39.009Z,13.47
2023-10-30T10:14:08.308Z,13.55
2023-10-30T10:16:37.769Z,13.64
2023-10-30T10:19:21.015Z,13.84
2023-10-30T10:21:51.356Z,13.97
2023-10-30T10:24:29.454Z,14.12
2023-10-30T10:27:03.467Z,14.16
2023-10-30T10:29:32.664Z,14.10
2023-10-30T10:32:00.308Z,14.09
2023-10-30T10:34:32.015Z,14.06
2023-10-30T10:37:00.941Z,13.96
2023-10-30T10:39:29.014Z,13.98
2023-10-30T10:41:58.215Z,14.11
2023-10-30T10:44:26.715Z,14.09
2023-10-30T10:47:00.321Z,14.16
2023-10-30T10:49:28.108Z,14.31
2023-10-30T10:51:57.276Z,14.26
2023-10-30T10:54:28.545Z,14.17
2023-10-30T10:56:58.523Z,14.09
2023-10-30T10:59:29.371Z,14.19
2023-10-30T11:02:01.177Z,14.25
2023-10-30T11:04:30.901Z,14.32
2023-10-30T11:07:03.906Z,14.24
2023-10-30T11:09:42.704Z,14.25
2023-10-30T11:12:21.940Z,14.38
2023-10-30T11:14:58.054Z,14.52
2023-10-30T11:17:28.240Z,14.52
2023-10-30T11:20:04.793Z,14.66
2023-10-30T11:22:40.767Z,14.67
2023-10-30T11:25:29.333Z,14.63
2023-10-30T11:27:59.241Z,14.66
2023-10-30T11:30:28.003Z,14.76
2023-10-30T11:32:59.329Z,14.75
2023-10-30T11:35:31.304Z,14.77
2023-10-30T11:38:00.889Z,14.84
2023-10-30T11:40:28.686Z,14.98
2023-10-30T11:42:58.772Z,15.05
2023-10-30T11:45:29.512Z,15.14
2023-10-30T11:48:02.532Z,15.10
2023-10-30T11:50:33.706Z,15.15
2023-10-30T11:53:02.297Z,15.17
2023-10-30T11:55:31.581Z,15.27
2023-10-30T11:58:00.738Z,15.28
2023-10-30T12:00:28.600Z,15.35
2023-10-30T12:02:56.841Z,15.28
2023-10-30T12:05:27.033Z,15.19
2023-10-30T12:07:54.990Z,15.20
2023-10-30T12:10:23.753Z,15.11
2023-10-30T12:12:51.455Z,15.15
2023-10-30T12:15:19.148Z,15.23
2023-10-30T12:17:46.897Z,15.20
2023-10-30T12:20:14.547Z,15.24
2023-10-30T12:22:45.638Z,15.17
2023-10-30T12:25:17.209Z,15.09
2023-10-30T12:27:45.312Z,15.11
2023-10-30T12:30:14.643Z,15.10
2023-10-30T12:32:43.334Z,15.19
2023-10-30T12:35:16.129Z,15.23
2023-10-30T12:37:45.089Z,15.21
2023-10-30T12:40:14.440Z,15.10
2023-10-30T12:42:44.415Z,14.89
2023-10-30T12:45:13.484Z,14.79
2023-10-30T12:47:42.338Z,14.80
2023-10-30T12:50:11.543Z,14.84
2023-10-30T12:52:39.442Z,15.01
2023-10-30T12:55:09.277Z,15.09
2023-10-30T12:57:38.273Z,15.20
2023-10-30T13:00:08.062Z,15.21
2023-10-30T13:02:36.160Z,15.22
2023-10-30T13:05:04.477Z,15.19
2023-10-30T13:07:32.544Z,15.20
2023-10-30T13:10:00.364Z,15.20
2023-10-30T13:12:29.999Z,15.23
2023-10-30T13:14:57.660Z,15.24
2023-10-30T13:17:25.479Z,15.31
2023-10-30T13:19:53.969Z,15.31
2023-10-30T13:22:21.589Z,15.25
2023-10-30T13:24:50.602Z,15.31
2023-10-30T13:27:18.582Z,15.28
2023-10-30T13:29:47.658Z,15.25
2023-10-30T13:32:15.394Z,15.24
2023-10-30T13:34:43.222Z,15.32
2023-10-30T13:37:10.834Z,15.22
2023-10-30T13:39:39.662Z,15.13
2023-10-30T13:42:07.810Z,15.04
2023-10-30T13:44:35.516Z,15.01
2023-10-30T13:47:04.602Z,14.89
2023-10-30T13:49:32.522Z,14.91
2023-10-30T13:52:00.277Z,14.85
2023-10-30T13:54:28.007Z,14.85
2023-10-30T13:56:55.753Z,14.82
2023-10-30T13:59:23.458Z,14.81
2023-10-30T14:01:52.481Z,14.77
2023-10-30T14:04:22.247Z,14.72
2023-10-30T14:06:49.966Z,14.61
2023-10-30T14:09:17.834Z,14.59
2023-10-30T14:11:46.054Z,14.53
2023-10-30T14:14:13.630Z,14.43
2023-10-30T14:16:41.742Z,14.38
2023-10-30T14:19:09.509Z,14.29
2023-10-30T14:21:39.257Z,14.26
2023-10-30T14:24:08.978Z,14.12
2023-10-30T14:26:38.324Z,14.08
2023-10-30T14:29:06.341Z,14.06
2023-10-30T14:31:33.982Z,14.05
2023-10-30T14:34:01.626Z,13.99
2023-10-30T14:36:29.922Z,13.92
2023-10-30T14:38:59.028Z,13.84
2023-10-30T14:41:27.759Z,13.74
2023-10-30T14:43:55.399Z,13.69
2023-10-30T14:46:23.341Z,13.57
2023-10-30T14:48:51.138Z,13.50
2023-10-30T14:51:19.989Z,13.38
2023-10-30T14:53:47.949Z,13.30
2023-10-30T14:56:17.374Z,13.20
2023-10-30T14:58:45.096Z,13.12
2023-10-30T15:01:13.020Z,13.03
2023-10-30T15:03:41.458Z,12.96
2023-10-30T15:06:09.137Z,12.90
2023-10-30T15:08:36.779Z,12.79
2023-10-30T15:11:04.706Z,12.76
2023-10-30T15:13:33.725Z,12.72
2023-10-30T15:16:01.901Z,12.66
2023-10-30T15:18:29.597Z,12.61
2023-10-30T15:20:57.354Z,12.54
2023-10-30T15:23:25.664Z,12.46
2023-10-30T15:25:53.311Z,12.40
2023-10-30T15:28:20.970Z,12.33
2023-10-30T15:30:53.101Z,12.25
2023-10-30T15:33:21.789Z,12.19
2023-10-30T15:35:49.477Z,12.11
2023-10-30T15:38:17.475Z,12.03
2023-10-30T15:40:45.106Z,11.96
2023-10-30T15:43:12.978Z,11.87
2023-10-30T15:45:40.764Z,11.80
2023-10-30T15:48:09.922Z,11.70
2023-10-30T15:50:38.306Z,11.61
2023-10-30T15:58:44.895Z,11.41
2023-10-30T16:01:00.837Z,11.35
2023-10-30T16:03:32.087Z,11.31
2023-10-30T16:16:04.399Z,11.06
2023-10-30T16:18:33.660Z,10.99
2023-10-30T16:23:32.292Z,10.97
2023-10-30T16:26:00.010Z,10.97
2023-10-30T16:28:27.770Z,10.99
2023-10-30T16:30:55.855Z,11.02
2023-10-30T16:33:23.481Z,11.02
2023-10-30T16:35:52.950Z,11.03
2023-10-30T16:38:20.664Z,11.03
2023-10-30T16:40:48.314Z,11.06
2023-10-30T16:43:16.060Z,11.06
2023-10-30T16:45:44.100Z,11.04
2023-10-30T16:48:12.401Z,11.06
2023-10-30T16:50:40.377Z,11.06
2023-10-30T16:53:09.354Z,11.05
2023-10-30T16:55:37.048Z,11.03
2023-10-30T16:58:04.810Z,11.03
2023-10-30T17:00:32.518Z,11.01
2023-10-30T17:03:01.095Z,11.01
2023-10-30T17:05:28.852Z,11.00
2023-10-30T17:07:56.579Z,11.00
2023-10-30T17:10:25.741Z,11.00
2023-10-30T17:12:53.463Z,11.01
2023-10-30T17:15:21.127Z,11.02
2023-10-30T17:17:48.782Z,11.04
2023-10-30T17:20:16.530Z,11.05
2023-10-30T17:22:44.673Z,11.05
2023-10-30T17:25:12.538Z,11.05
2023-10-30T17:27:42.392Z,11.05
2023-10-30T17:30:10.814Z,11.05
2023-10-30T17:32:38.659Z,11.04
2023-10-30T17:35:07.070Z,11.03
2023-10-30T17:37:34.753Z,11.01
2023-10-30T17:40:02.503Z,10.99
2023-10-30T17:42:30.161Z,10.97
2023-10-30T17:44:59.158Z,10.96
2023-10-30T17:47:26.928Z,10.91
2023-10-30T17:49:54.710Z,10.89
2023-10-30T17:52:22.448Z,10.87
2023-10-30T17:54:50.096Z,10.84
2023-10-30T17:57:17.727Z,10.82
2023-10-30T17:59:45.747Z,10.80
2023-10-30T18:02:14.802Z,10.77
2023-10-30T18:04:42.418Z,10.74
2023-10-30T18:07:10.114Z,10.71
2023-10-30T18:09:37.805Z,10.68
2023-10-30T18:12:06.355Z,10.66
2023-10-30T18:14:36.166Z,10.64
2023-10-30T18:17:05.730Z,10.58
2023-10-30T18:19:34.742Z,10.55
2023-10-30T18:22:02.534Z,10.52
2023-10-30T18:24:30.209Z,10.48
2023-10-30T18:26:58.681Z,10.44
2023-10-30T18:29:28.631Z,10.41
2023-10-30T18:31:57.287Z,10.41
2023-10-30T18:34:25.151Z,10.42
2023-10-30T18:36:54.597Z,10.43
2023-10-30T18:39:22.595Z,10.46
2023-10-30T18:41:50.323Z,10.50
2023-10-30T18:44:18.573Z,10.53
2023-10-30T18:46:46.435Z,10.57
2023-10-30T18:49:14.333Z,10.60
2023-10-30T18:51:43.926Z,10.66
2023-10-30T18:54:12.981Z,10.69
2023-10-30T18:56:40.913Z,10.74
2023-10-30T18:59:08.574Z,10.77
2023-10-30T19:01:36.274Z,10.81
2023-10-30T19:04:05.250Z,10.85
2023-10-30T19:06:32.919Z,10.87
2023-10-30T19:09:00.495Z,10.90
2023-10-30T19:11:31.730Z,10.91
2023-10-30T19:13:59.751Z,10.92
2023-10-30T19:16:27.434Z,10.91
2023-10-30T19:18:55.205Z,10.90
2023-10-30T19:21:22.858Z,10.91
2023-10-30T19:23:50.885Z,10.90
2023-10-30T19:26:18.601Z,10.88
2023-10-30T19:28:47.635Z,10.86
2023-10-30T19:31:15.497Z,10.84
2023-10-30T19:33:43.598Z,10.82
2023-10-30T19:36:11.930Z,10.80
2023-10-30T19:38:39.603Z,10.78
2023-10-30T19:41:07.370Z,10.77
2023-10-30T19:43:36.199Z,10.76
2023-10-30T19:46:05.362Z,10.74
2023-10-30T19:48:32.978Z,10.73
2023-10-30T19:51:01.618Z,10.73
2023-10-30T19:53:29.316Z,10.73
2023-10-30T19:55:57.142Z,10.72
2023-10-30T19:58:25.356Z,10.73
2023-10-30T20:00:53.024Z,10.73
2023-10-30T20:03:22.705Z,10.73
2023-10-30T20:05:50.502Z,10.74
2023-10-30T20:08:18.154Z,10.76
2023-10-30T20:10:46.897Z,10.76
2023-10-30T20:13:14.920Z,10.77
2023-10-30T20:15:42.524Z,10.78
2023-10-30T20:18:10.153Z,10.78
2023-10-30T20:20:39.177Z,10.79
2023-10-30T20:23:06.865Z,10.80
2023-10-30T20:25:35.206Z,10.80
2023-10-30T20:28:02.880Z,10.81
2023-10-30T20:30:30.516Z,10.85
2023-10-30T20:32:58.702Z,10.85
2023-10-30T20:35:26.437Z,10.85
2023-10-30T20:37:55.467Z,10.88
2023-10-30T20:40:23.102Z,10.91
2023-10-30T20:42:50.831Z,10.92
2023-10-30T20:45:18.440Z,10.95
2023-10-30T20:47:46.224Z,10.98
2023-10-30T20:50:14.113Z,11.00
2023-10-30T20:52:41.941Z,11.01
2023-10-30T20:55:11.280Z,11.02
2023-10-30T20:57:40.148Z,11.05
2023-10-30T21:00:09.417Z,11.08
2023-10-30T21:02:37.141Z,11.10
2023-10-30T21:05:05.548Z,11.13
2023-10-30T21:07:33.364Z,11.14
2023-10-30T21:10:03.508Z,11.16
2023-10-30T21:12:33.930Z,11.19
2023-10-30T21:15:02.361Z,11.20
2023-10-30T21:17:30.177Z,11.22
2023-10-30T21:19:58.190Z,11.24
2023-10-30T21:22:26.031Z,11.28
2023-10-30T21:24:53.742Z,11.29
2023-10-30T21:27:22.076Z,11.32
2023-10-30T21:29:51.190Z,11.36
2023-10-30T21:32:19.473Z,11.38
2023-10-30T21:34:47.204Z,11.40
2023-10-30T21:37:15.090Z,11.41
2023-10-30T21:39:42.773Z,11.44
2023-10-30T21:42:10.381Z,11.45
2023-10-30T21:44:38.074Z,11.49
2023-10-30T21:47:07.665Z,11.51
2023-10-30T21:49:35.752Z,11.53
2023-10-30T21:52:03.411Z,11.55
2023-10-30T21:54:31.078Z,11.56
2023-10-30T21:56:58.728Z,11.55
2023-10-30T21:59:26.589Z,11.54
2023-10-30T22:01:54.293Z,11.50
2023-10-30T22:04:23.350Z,11.50
2023-10-30T22:06:50.946Z,11.49
2023-10-30T22:09:19.626Z,11.48
2023-10-30T22:11:47.835Z,11.43
2023-10-30T22:14:15.400Z,11.42
2023-10-30T22:16:43.348Z,11.41
2023-10-30T22:19:11.143Z,11.37
2023-10-30T22:21:40.419Z,11.36
2023-10-30T22:24:08.989Z,11.33
2023-10-30T22:26:37.006Z,11.33
2023-10-30T22:29:05.067Z,11.31
2023-10-30T22:31:32.948Z,11.31
2023-10-30T22:34:00.606Z,11.31
2023-10-30T22:36:28.522Z,11.29
2023-10-30T22:38:57.647Z,11.25
2023-10-30T22:41:25.903Z,11.25
2023-10-30T22:43:54.503Z,11.25
2023-10-30T22:46:22.227Z,11.21
2023-10-30T22:48:49.849Z,11.20
2023-10-30T22:51:17.480Z,11.15
2023-10-30T22:53:45.180Z,11.17
2023-10-30T22:56:14.194Z,11.14
2023-10-30T22:58:42.944Z,11.15
2023-10-30T23:01:11.666Z,11.11
2023-10-30T23:03:39.545Z,11.11
2023-10-30T23:06:08.581Z,11.10
2023-10-30T23:08:36.382Z,11.15
2023-10-30T23:11:04.316Z,11.15
2023-10-30T23:13:33.279Z,11.17
2023-10-30T23:16:00.887Z,11.17
2023-10-30T23:18:28.726Z,11.16
2023-10-30T23:20:56.571Z,11.11
2023-10-30T23:23:24.207Z,11.08
2023-10-30T23:25:52.107Z,11.08
2023-10-30T23:28:19.890Z,11.03
2023-10-30T23:30:48.959Z,11.00
2023-10-30T23:33:16.776Z,10.98
2023-10-30T23:35:44.430Z,10.95
2023-10-30T23:38:15.465Z,10.95
2023-10-30T23:40:43.795Z,10.93
2023-10-30T23:43:11.619Z,10.92
2023-10-30T23:45:39.866Z,10.91
2023-10-30T23:48:09.106Z,10.91
2023-10-30T23:50:36.810Z,10.91
2023-10-30T23:53:04.680Z,10.90
2023-10-30T23:55:33.007Z,10.87
2023-10-30T23:58:00.763Z,10.86
